Time;durP1;ratioP1;P1;durP2;ratioP2;P2;SDS_P1;SDS_P2;PMS_P1;PMS_P2;Temp;Humidity;BMP_temperature;BMP_pressure;BME280_temperature;BME280_humidity;BME280_pressure;Samples;Min_cycle;Max_cycle;Signal;HPM_P1;HPM_P2
2023/08/26 00:00:09;;;;;;;9.10;3.83;;;21.20;99.90;;;;;;5018774;28;20033;-68
2023/08/26 00:02:34;;;;;;;7.47;4.20;;;21.30;99.90;;;;;;5018442;28;20025;-68
2023/08/26 00:05:00;;;;;;;9.80;4.43;;;21.30;99.90;;;;;;5018531;28;20030;-68
2023/08/26 00:07:26;;;;;;;10.80;4.50;;;21.30;99.90;;;;;;5018423;28;20443;-68
2023/08/26 00:09:52;;;;;;;10.65;4.78;;;21.20;99.90;;;;;;5018557;28;20056;-68
2023/08/26 00:12:17;;;;;;;5.90;3.72;;;21.10;99.90;;;;;;5018332;28;20030;-68
2023/08/26 00:14:43;;;;;;;5.88;3.67;;;21.10;99.90;;;;;;5018128;28;20022;-68
2023/08/26 00:17:09;;;;;;;10.05;3.80;;;21.10;99.90;;;;;;5018627;28;20025;-68
2023/08/26 00:19:34;;;;;;;7.78;4.30;;;21.10;99.90;;;;;;5018212;28;20148;-68
2023/08/26 00:22:00;;;;;;;8.02;4.18;;;21.10;99.90;;;;;;5018299;28;20022;-68
2023/08/26 00:24:26;;;;;;;6.53;3.92;;;21.20;99.90;;;;;;5017845;28;20026;-68
2023/08/26 00:26:51;;;;;;;6.18;3.95;;;21.20;99.90;;;;;;5017960;28;20057;-68
2023/08/26 00:29:17;;;;;;;7.15;4.13;;;21.20;99.90;;;;;;5018171;28;20084;-68
2023/08/26 00:31:42;;;;;;;6.22;3.60;;;21.10;99.90;;;;;;5017960;28;20025;-68
2023/08/26 00:34:08;;;;;;;7.75;4.18;;;21.00;99.90;;;;;;5018176;28;20018;-68
2023/08/26 00:36:33;;;;;;;9.25;4.47;;;21.10;99.90;;;;;;5019075;28;20042;-68
2023/08/26 00:38:59;;;;;;;11.90;5.65;;;21.40;99.90;;;;;;5017647;28;20048;-68
2023/08/26 00:41:25;;;;;;;11.30;5.30;;;21.40;99.90;;;;;;5017925;28;20125;-68
2023/08/26 00:43:50;;;;;;;27.63;9.50;;;21.40;99.90;;;;;;5018479;28;20057;-68
2023/08/26 00:46:16;;;;;;;24.80;9.68;;;21.40;99.90;;;;;;5017514;28;20021;-68
2023/08/26 00:48:42;;;;;;;18.13;9.40;;;21.20;99.90;;;;;;5017332;28;20033;-68
2023/08/26 00:51:08;;;;;;;18.50;9.70;;;21.10;99.90;;;;;;5017363;28;20029;-68
2023/08/26 00:53:34;;;;;;;23.27;10.13;;;20.90;99.90;;;;;;5017789;28;20022;-68
2023/08/26 00:56:00;;;;;;;17.17;8.73;;;20.70;99.90;;;;;;5017512;28;20023;-68
2023/08/26 00:58:27;;;;;;;14.25;8.80;;;20.70;99.90;;;;;;5017626;28;20077;-68
2023/08/26 01:00:52;;;;;;;12.90;8.52;;;20.60;99.90;;;;;;5017557;28;20116;-68
2023/08/26 01:03:18;;;;;;;11.23;7.35;;;20.60;99.90;;;;;;5017669;28;20127;-68
2023/08/26 01:05:44;;;;;;;20.83;10.52;;;20.70;99.90;;;;;;5017549;28;20038;-68
2023/08/26 01:08:10;;;;;;;25.42;12.50;;;20.70;99.90;;;;;;5017439;28;20022;-68
2023/08/26 01:11:08;;;;;;;23.33;12.18;;;20.70;99.90;;;;;;5017494;28;20026;-68
2023/08/26 01:13:50;;;;;;;21.90;11.68;;;20.70;99.90;;;;;;5017132;28;20052;-68
2023/08/26 01:16:17;;;;;;;22.17;11.15;;;20.60;99.90;;;;;;5017719;28;20076;-68
2023/08/26 01:18:43;;;;;;;24.02;13.00;;;20.50;99.90;;;;;;5016883;28;20123;-68
2023/08/26 01:21:12;;;;;;;18.88;11.32;;;20.50;99.90;;;;;;5016936;28;20056;-68
2023/08/26 01:23:39;;;;;;;23.63;11.75;;;20.40;99.90;;;;;;5018115;28;20029;-68
2023/08/26 01:26:05;;;;;;;26.67;12.90;;;20.40;99.90;;;;;;5016758;28;20057;-68
2023/08/26 01:28:31;;;;;;;26.13;12.27;;;20.40;99.90;;;;;;5016862;28;20033;-68
2023/08/26 01:30:59;;;;;;;27.25;12.55;;;20.40;99.90;;;;;;5016663;28;20026;-68
2023/08/26 01:33:31;;;;;;;22.95;13.43;;;20.50;99.90;;;;;;5017793;28;20076;-68
2023/08/26 01:36:03;;;;;;;22.30;13.43;;;20.50;99.90;;;;;;5017658;28;20029;-68
2023/08/26 01:38:29;;;;;;;19.85;12.43;;;20.40;99.90;;;;;;5017243;28;20036;-68
2023/08/26 01:40:56;;;;;;;16.67;11.80;;;20.30;99.90;;;;;;5016730;28;20032;-68
2023/08/26 01:43:23;;;;;;;20.13;10.52;;;20.20;99.90;;;;;;5016542;28;20026;-68
2023/08/26 01:45:51;;;;;;;23.50;12.65;;;20.10;99.90;;;;;;5017572;28;20053;-68
2023/08/26 01:48:16;;;;;;;22.98;13.32;;;20.10;99.90;;;;;;5016333;28;20073;-67
2023/08/26 01:50:42;;;;;;;21.23;11.80;;;20.10;99.90;;;;;;5016531;28;20049;-67
2023/08/26 01:53:08;;;;;;;21.98;13.60;;;20.00;99.90;;;;;;5016988;28;20033;-68
2023/08/26 01:55:34;;;;;;;25.52;13.85;;;20.00;99.90;;;;;;5016815;28;20034;-68
2023/08/26 01:58:00;;;;;;;22.98;12.93;;;20.10;99.90;;;;;;5017319;28;20086;-68
2023/08/26 02:00:26;;;;;;;26.83;13.30;;;20.00;99.90;;;;;;5017310;28;20026;-68
2023/08/26 02:02:51;;;;;;;25.25;12.90;;;20.10;99.90;;;;;;5016813;28;20072;-68
2023/08/26 02:05:17;;;;;;;25.88;13.82;;;20.10;99.90;;;;;;5017129;28;20036;-68
2023/08/26 02:07:43;;;;;;;22.40;13.45;;;20.20;99.90;;;;;;5016551;28;20069;-68
2023/08/26 02:10:09;;;;;;;20.05;11.93;;;20.20;99.90;;;;;;5016885;28;20058;-68
2023/08/26 02:12:34;;;;;;;21.95;11.65;;;20.30;99.90;;;;;;5016626;28;20022;-68
2023/08/26 02:15:03;;;;;;;27.65;12.68;;;20.30;99.90;;;;;;5016603;28;20029;-68
2023/08/26 02:17:29;;;;;;;18.05;9.90;;;20.40;99.90;;;;;;5016032;28;20022;-68
2023/08/26 02:19:55;;;;;;;21.67;11.13;;;20.50;99.90;;;;;;5017145;28;20026;-68
2023/08/26 02:22:20;;;;;;;25.63;10.00;;;20.60;99.90;;;;;;5017084;28;20030;-68
2023/08/26 02:24:46;;;;;;;17.35;9.43;;;20.60;99.90;;;;;;5017205;28;20030;-68
2023/08/26 02:27:13;;;;;;;17.23;9.90;;;20.60;99.90;;;;;;5016156;28;20038;-68
2023/08/26 02:29:38;;;;;;;21.20;10.32;;;20.60;99.90;;;;;;5017109;28;20026;-68
2023/08/26 02:32:05;;;;;;;18.40;9.35;;;20.60;99.90;;;;;;5016825;28;20084;-68
2023/08/26 02:34:30;;;;;;;19.23;11.38;;;20.60;99.90;;;;;;5016860;28;20026;-67
2023/08/26 02:36:56;;;;;;;17.60;10.73;;;20.60;99.90;;;;;;5016817;28;20029;-67
2023/08/26 02:39:21;;;;;;;21.30;10.68;;;20.50;99.90;;;;;;5017091;28;20069;-67
2023/08/26 02:41:47;;;;;;;19.42;10.77;;;20.40;99.90;;;;;;5015878;28;20034;-67
2023/08/26 02:44:12;;;;;;;15.27;9.90;;;20.40;99.90;;;;;;5016102;28;20041;-67
2023/08/26 02:46:38;;;;;;;16.58;10.57;;;20.40;99.90;;;;;;5016143;28;20044;-68
2023/08/26 02:49:03;;;;;;;23.60;11.70;;;20.40;99.90;;;;;;5040773;22;20038;-65
2023/08/26 02:51:29;;;;;;;16.15;10.13;;;20.40;99.90;;;;;;5019667;28;20054;-65
2023/08/26 02:53:54;;;;;;;14.63;10.18;;;20.40;99.90;;;;;;5019726;28;20025;-65
2023/08/26 02:56:20;;;;;;;22.67;10.95;;;20.30;99.90;;;;;;5019926;28;20030;-65
2023/08/26 02:58:45;;;;;;;19.20;11.75;;;20.30;99.90;;;;;;5019470;28;20044;-65
2023/08/26 03:01:11;;;;;;;21.83;12.25;;;20.20;99.90;;;;;;5020577;28;20082;-65
2023/08/26 03:03:36;;;;;;;19.02;11.52;;;20.20;99.90;;;;;;5020294;28;20085;-65
2023/08/26 03:06:02;;;;;;;18.27;12.07;;;20.10;99.90;;;;;;5020282;28;20022;-65
2023/08/26 03:08:28;;;;;;;20.67;13.50;;;20.20;99.90;;;;;;5019320;28;20029;-65
2023/08/26 03:11:03;;;;;;;24.85;11.85;;;20.10;99.90;;;;;;5019331;28;20033;-65
2023/08/26 03:13:29;;;;;;;23.50;13.55;;;20.00;99.90;;;;;;5019340;28;20025;-65
2023/08/26 03:15:55;;;;;;;19.90;11.73;;;20.00;99.90;;;;;;5019517;28;20018;-65
2023/08/26 03:18:20;;;;;;;18.05;11.70;;;20.10;99.90;;;;;;5019163;28;20026;-65
2023/08/26 03:20:46;;;;;;;15.90;11.38;;;20.10;99.90;;;;;;5020261;28;20101;-65
2023/08/26 03:23:11;;;;;;;22.88;13.50;;;20.10;99.90;;;;;;5019228;28;20022;-65
2023/08/26 03:25:38;;;;;;;18.33;12.68;;;20.10;99.90;;;;;;5019029;28;20022;-65
2023/08/26 03:28:04;;;;;;;18.67;12.55;;;20.00;99.90;;;;;;5019312;28;20026;-65
2023/08/26 03:30:29;;;;;;;19.17;13.00;;;20.00;99.90;;;;;;5018961;28;20037;-65
2023/08/26 03:32:55;;;;;;;19.02;10.73;;;20.00;99.90;;;;;;5019755;28;20083;-65
2023/08/26 03:35:20;;;;;;;20.65;11.13;;;20.00;99.90;;;;;;5019506;28;20033;-65
2023/08/26 03:37:46;;;;;;;20.38;11.02;;;19.90;99.90;;;;;;5019666;28;20025;-65
2023/08/26 03:40:11;;;;;;;19.65;11.57;;;19.90;99.90;;;;;;5018833;28;20013;-65
2023/08/26 03:42:37;;;;;;;26.10;12.23;;;19.80;99.90;;;;;;5018746;28;20026;-65
2023/08/26 03:45:04;;;;;;;17.83;11.18;;;19.70;99.90;;;;;;5018819;28;20058;-65
2023/08/26 03:47:30;;;;;;;22.65;13.23;;;19.70;99.90;;;;;;5018545;28;20026;-65
2023/08/26 03:49:56;;;;;;;17.92;11.50;;;19.60;99.90;;;;;;5018937;28;20033;-65
2023/08/26 03:52:21;;;;;;;23.55;13.65;;;19.60;99.90;;;;;;5018739;28;20030;-65
2023/08/26 03:54:47;;;;;;;23.13;12.63;;;19.60;99.90;;;;;;5018389;28;20029;-65
2023/08/26 03:57:12;;;;;;;23.70;13.25;;;19.60;99.90;;;;;;5018464;28;20117;-65
2023/08/26 03:59:38;;;;;;;18.83;12.25;;;19.60;99.90;;;;;;5018658;28;20112;-65
2023/08/26 04:02:04;;;;;;;18.20;12.30;;;19.60;99.90;;;;;;5018452;28;20120;-65
2023/08/26 04:04:30;;;;;;;20.40;10.75;;;19.70;99.90;;;;;;5019097;28;20022;-65
2023/08/26 04:06:57;;;;;;;15.45;10.30;;;19.80;99.90;;;;;;5019067;28;20029;-65
2023/08/26 04:09:23;;;;;;;19.55;10.50;;;19.80;99.90;;;;;;5018646;28;20089;-65
2023/08/26 04:11:49;;;;;;;21.35;9.20;;;19.70;99.90;;;;;;5018050;28;20022;-65
2023/08/26 04:14:14;;;;;;;15.50;9.07;;;19.70;99.90;;;;;;5018384;28;20025;-65
2023/08/26 04:16:40;;;;;;;20.50;10.63;;;19.70;99.90;;;;;;5018096;28;20026;-65
2023/08/26 04:19:06;;;;;;;14.63;9.18;;;19.60;99.90;;;;;;5018977;28;20022;-65
2023/08/26 04:21:31;;;;;;;17.98;8.77;;;19.60;99.90;;;;;;5019142;28;20025;-65
2023/08/26 04:23:57;;;;;;;16.48;8.27;;;19.50;99.90;;;;;;5019019;28;20030;-65
2023/08/26 04:26:23;;;;;;;14.63;8.00;;;19.40;99.90;;;;;;5018855;28;20030;-65
2023/08/26 04:28:49;;;;;;;14.15;7.70;;;19.40;99.90;;;;;;5018701;28;20104;-65
2023/08/26 04:31:14;;;;;;;10.85;7.00;;;19.30;99.90;;;;;;5018870;28;20105;-65
2023/08/26 04:33:40;;;;;;;11.68;6.22;;;19.20;99.90;;;;;;5018796;28;20030;-65
2023/08/26 04:36:06;;;;;;;7.72;5.35;;;19.00;99.90;;;;;;5017731;28;20026;-65
2023/08/26 04:38:31;;;;;;;10.15;5.10;;;18.90;99.90;;;;;;5018118;28;20026;-65
2023/08/26 04:40:57;;;;;;;9.13;5.47;;;18.90;99.90;;;;;;5017744;28;20044;-65
2023/08/26 04:43:25;;;;;;;16.08;5.22;;;18.80;99.90;;;;;;5018630;28;20053;-65
2023/08/26 04:45:52;;;;;;;12.93;5.35;;;18.70;99.90;;;;;;5018470;28;20022;-65
2023/08/26 04:48:18;;;;;;;9.48;5.55;;;18.70;99.90;;;;;;5017451;28;20030;-65
2023/08/26 04:50:44;;;;;;;11.00;5.72;;;18.70;99.90;;;;;;5018407;28;20116;-65
2023/08/26 04:53:10;;;;;;;9.88;5.78;;;18.70;99.90;;;;;;5017716;28;20040;-65
2023/08/26 04:55:36;;;;;;;10.07;6.45;;;18.70;99.90;;;;;;5017906;28;20026;-65
2023/08/26 04:58:03;;;;;;;11.15;5.03;;;18.60;99.90;;;;;;5017276;28;20026;-65
2023/08/26 05:00:28;;;;;;;14.38;5.55;;;18.70;99.90;;;;;;5017362;28;20037;-65
2023/08/26 05:02:54;;;;;;;8.82;5.00;;;18.60;99.90;;;;;;5018490;28;20029;-65
2023/08/26 05:05:20;;;;;;;7.05;4.18;;;18.60;99.90;;;;;;5018003;28;20028;-65
2023/08/26 05:07:45;;;;;;;9.00;4.82;;;18.50;99.90;;;;;;5017841;28;20053;-65
2023/08/26 05:10:11;;;;;;;7.40;3.42;;;18.50;99.90;;;;;;5018228;28;20018;-65
2023/08/26 05:12:36;;;;;;;5.00;2.85;;;18.50;99.90;;;;;;5017312;28;20036;-65
2023/08/26 05:15:04;;;;;;;3.45;2.65;;;18.50;99.90;;;;;;5017038;28;20028;-65
2023/08/26 05:17:29;;;;;;;6.57;2.60;;;18.60;99.90;;;;;;5017737;28;20104;-65
2023/08/26 05:19:55;;;;;;;7.18;2.55;;;18.60;99.90;;;;;;5017050;28;20030;-65
2023/08/26 05:22:21;;;;;;;5.05;2.38;;;18.60;99.90;;;;;;5016897;28;20026;-65
2023/08/26 05:24:47;;;;;;;4.65;2.90;;;18.60;99.90;;;;;;5017927;28;20033;-65
2023/08/26 05:27:14;;;;;;;6.38;2.63;;;18.70;99.90;;;;;;5017519;28;20061;-65
2023/08/26 05:29:39;;;;;;;3.65;2.22;;;18.60;99.90;;;;;;5017938;28;20033;-65
2023/08/26 05:32:05;;;;;;;2.83;2.03;;;18.70;99.90;;;;;;5016760;28;20030;-65
2023/08/26 05:34:31;;;;;;;5.05;2.13;;;18.70;99.90;;;;;;5017755;28;20033;-65
2023/08/26 05:36:57;;;;;;;5.38;2.20;;;18.70;99.90;;;;;;5017746;28;20026;-65
2023/08/26 05:39:22;;;;;;;5.93;2.38;;;18.60;99.90;;;;;;5016697;28;20022;-65
2023/08/26 05:41:48;;;;;;;5.97;1.88;;;18.50;99.90;;;;;;5018127;28;20032;-65
2023/08/26 05:44:13;;;;;;;3.65;2.10;;;18.30;99.90;;;;;;5016606;28;20026;-65
2023/08/26 05:46:39;;;;;;;2.38;1.60;;;18.30;99.90;;;;;;5017526;28;20034;-65
2023/08/26 05:49:04;;;;;;;5.88;2.42;;;18.30;99.90;;;;;;5016481;28;20104;-65
2023/08/26 05:51:30;;;;;;;6.85;1.92;;;18.20;99.90;;;;;;5016367;28;20034;-65
2023/08/26 05:53:55;;;;;;;8.43;2.20;;;18.20;99.90;;;;;;5016439;28;20018;-65
2023/08/26 05:56:21;;;;;;;4.32;2.05;;;18.30;99.90;;;;;;5016304;28;20089;-65
2023/08/26 05:58:47;;;;;;;3.80;1.75;;;18.30;99.90;;;;;;5016446;28;20021;-65
2023/08/26 06:01:12;;;;;;;6.45;1.90;;;18.20;99.90;;;;;;5016778;28;20022;-65
2023/08/26 06:03:38;;;;;;;3.90;1.80;;;18.20;99.90;;;;;;5017296;28;20026;-65
2023/08/26 06:06:05;;;;;;;4.07;1.95;;;18.20;99.90;;;;;;5016370;28;20032;-65
2023/08/26 06:08:31;;;;;;;2.88;1.65;;;18.30;99.90;;;;;;5017149;28;20056;-65
2023/08/26 06:10:57;;;;;;;5.97;1.70;;;18.30;99.90;;;;;;5017179;28;20026;-65
2023/08/26 06:13:23;;;;;;;2.20;1.38;;;18.40;99.90;;;;;;5017150;28;20018;-65
2023/08/26 06:15:58;;;;;;;4.25;1.60;;;18.40;99.90;;;;;;5016588;28;20022;-65
2023/08/26 06:18:24;;;;;;;2.00;1.40;;;18.40;99.90;;;;;;5016331;28;20029;-65
2023/08/26 06:20:51;;;;;;;2.40;1.35;;;18.40;99.90;;;;;;5016163;28;20018;-65
2023/08/26 06:23:17;;;;;;;6.53;1.85;;;18.40;99.90;;;;;;5017290;28;20049;-65
2023/08/26 06:25:56;;;;;;;3.42;1.38;;;18.30;99.90;;;;;;5020379;28;20055;-65
2023/08/26 06:28:23;;;;;;;3.03;1.60;;;18.30;99.90;;;;;;5020036;28;20076;-65
2023/08/26 06:30:49;;;;;;;2.88;1.10;;;18.20;99.90;;;;;;5020937;28;20021;-65
2023/08/26 06:33:15;;;;;;;2.58;1.58;;;18.20;99.90;;;;;;5020953;28;20022;-65
2023/08/26 06:35:45;;;;;;;4.25;1.38;;;18.10;99.90;;;;;;5020733;28;20033;-65
2023/08/26 06:38:10;;;;;;;3.30;1.17;;;18.10;99.90;;;;;;5020171;28;20022;-65
2023/08/26 06:40:36;;;;;;;6.00;1.10;;;18.10;99.90;;;;;;5019960;28;20018;-65
2023/08/26 06:43:04;;;;;;;4.00;1.42;;;18.20;99.90;;;;;;5019989;28;20026;-65
2023/08/26 06:45:30;;;;;;;7.13;1.42;;;18.20;99.90;;;;;;5020175;28;20022;-65
2023/08/26 06:47:57;;;;;;;1.48;1.23;;;18.20;99.90;;;;;;5019898;28;20112;-65
2023/08/26 06:50:23;;;;;;;3.85;1.55;;;18.10;99.90;;;;;;5019694;28;20030;-65
2023/08/26 06:52:49;;;;;;;1.92;0.90;;;18.20;99.90;;;;;;5020839;28;20026;-65
2023/08/26 06:55:18;;;;;;;4.35;1.20;;;18.20;99.90;;;;;;5019679;28;20093;-65
2023/08/26 06:57:44;;;;;;;1.60;1.25;;;18.30;99.90;;;;;;5019432;28;20022;-65
2023/08/26 07:00:12;;;;;;;5.78;1.20;;;18.40;99.90;;;;;;5020642;28;20025;-65
2023/08/26 07:02:37;;;;;;;4.57;1.17;;;18.50;99.90;;;;;;5020614;28;20049;-65
2023/08/26 07:05:03;;;;;;;2.42;1.10;;;18.40;99.90;;;;;;5020588;28;20034;-65
2023/08/26 07:07:29;;;;;;;5.05;1.10;;;18.40;99.90;;;;;;5019458;28;20117;-65
2023/08/26 07:09:55;;;;;;;4.15;1.08;;;18.40;99.90;;;;;;5020598;28;20113;-65
2023/08/26 07:12:20;;;;;;;3.25;1.20;;;18.50;99.90;;;;;;5019524;28;20025;-65
2023/08/26 07:14:46;;;;;;;3.78;1.15;;;18.60;99.90;;;;;;5020138;28;20026;-65
2023/08/26 07:17:12;;;;;;;3.03;1.17;;;18.70;99.90;;;;;;5019396;28;20064;-65
2023/08/26 07:19:38;;;;;;;2.97;1.48;;;18.70;99.90;;;;;;5019506;28;20029;-65
2023/08/26 07:22:03;;;;;;;3.35;1.00;;;18.70;99.90;;;;;;5019623;28;20026;-65
2023/08/26 07:24:29;;;;;;;2.03;0.90;;;18.70;99.90;;;;;;5018990;28;20068;-65
2023/08/26 07:26:54;;;;;;;1.95;1.15;;;18.70;99.90;;;;;;5018947;28;20022;-65
2023/08/26 07:29:20;;;;;;;4.38;1.10;;;18.80;99.90;;;;;;5020022;28;20026;-65
2023/08/26 07:31:46;;;;;;;1.75;1.00;;;18.90;99.90;;;;;;5018910;28;20022;-65
2023/08/26 07:34:11;;;;;;;4.32;1.25;;;19.10;99.90;;;;;;5019026;28;20022;-65
2023/08/26 07:36:37;;;;;;;6.93;1.42;;;19.10;99.90;;;;;;5018001;28;20064;-65
2023/08/26 07:39:03;;;;;;;3.20;1.42;;;19.00;99.90;;;;;;5018752;28;20021;-65
2023/08/26 07:41:28;;;;;;;1.15;1.00;;;18.90;99.90;;;;;;5018875;28;20025;-65
2023/08/26 07:43:54;;;;;;;4.18;1.30;;;18.90;99.90;;;;;;5018729;28;20022;-66
2023/08/26 07:46:22;;;;;;;2.05;1.27;;;19.00;99.90;;;;;;5018805;28;20018;-67
2023/08/26 07:48:48;;;;;;;4.15;1.13;;;19.00;99.90;;;;;;5018663;28;20077;-67
2023/08/26 07:51:14;;;;;;;5.68;1.15;;;19.10;99.90;;;;;;5019395;28;20109;-66
2023/08/26 07:53:39;;;;;;;2.05;1.10;;;19.10;99.90;;;;;;5019862;28;20077;-67
2023/08/26 07:56:05;;;;;;;2.33;1.10;;;19.20;99.90;;;;;;5018502;28;20036;-67
2023/08/26 07:58:30;;;;;;;10.45;2.45;;;19.20;99.90;;;;;;5019484;28;20018;-67
2023/08/26 08:00:56;;;;;;;2.88;1.10;;;19.20;99.90;;;;;;5019176;28;20028;-67
2023/08/26 08:03:21;;;;;;;3.05;1.20;;;19.20;99.90;;;;;;5018371;28;20018;-67
2023/08/26 08:05:47;;;;;;;2.28;0.98;;;19.40;99.90;;;;;;5018378;28;20076;-68
2023/08/26 08:08:12;;;;;;;1.83;1.10;;;19.40;99.90;;;;;;5018265;28;20018;-67
2023/08/26 08:10:38;;;;;;;3.47;1.00;;;19.50;99.90;;;;;;5018362;28;20068;-66
2023/08/26 08:13:04;;;;;;;1.50;0.88;;;19.50;99.90;;;;;;5018315;28;20018;-67
2023/08/26 08:15:29;;;;;;;4.30;1.13;;;19.50;99.90;;;;;;5019054;28;20030;-66
2023/08/26 08:17:55;;;;;;;1.45;1.00;;;19.50;99.90;;;;;;5017987;28;20026;-66
2023/08/26 08:20:21;;;;;;;3.30;0.90;;;19.60;99.90;;;;;;5018147;28;20029;-66
2023/08/26 08:22:46;;;;;;;2.50;1.10;;;19.70;99.90;;;;;;5018492;28;20033;-67
2023/08/26 08:25:12;;;;;;;2.20;0.70;;;19.80;99.90;;;;;;5017900;28;20025;-66
2023/08/26 08:27:39;;;;;;;1.52;0.80;;;20.00;99.90;;;;;;5018010;28;20057;-66
2023/08/26 08:30:05;;;;;;;3.75;0.70;;;20.00;99.90;;;;;;5017961;28;20076;-66
2023/08/26 08:32:32;;;;;;;3.85;0.85;;;20.00;99.90;;;;;;5018527;28;20026;-66
2023/08/26 08:34:58;;;;;;;3.38;1.10;;;20.00;99.90;;;;;;5017792;28;20062;-66
2023/08/26 08:37:24;;;;;;;1.23;0.60;;;20.10;99.90;;;;;;5017693;28;20025;-66
2023/08/26 08:39:49;;;;;;;2.67;1.08;;;20.00;99.90;;;;;;5018036;28;20085;-65
2023/08/26 08:42:16;;;;;;;2.35;1.38;;;19.90;99.90;;;;;;5017536;28;20025;-66
2023/08/26 08:44:43;;;;;;;2.80;0.82;;;19.90;99.90;;;;;;5017613;28;20030;-66
2023/08/26 08:47:10;;;;;;;1.20;0.77;;;20.00;99.90;;;;;;5017443;28;20109;-65
2023/08/26 08:49:36;;;;;;;3.67;1.13;;;20.00;99.90;;;;;;5032986;22;20053;-65
2023/08/26 08:52:05;;;;;;;2.03;0.70;;;20.10;99.90;;;;;;5018627;28;20022;-65
2023/08/26 08:54:34;;;;;;;1.40;0.80;;;20.20;99.90;;;;;;5017793;28;20029;-65
2023/08/26 08:57:03;;;;;;;4.03;0.88;;;20.20;99.90;;;;;;5018282;28;20029;-64
2023/08/26 08:59:32;;;;;;;2.88;0.90;;;20.20;99.90;;;;;;5017268;28;20041;-65
2023/08/26 09:01:58;;;;;;;1.27;0.88;;;20.30;99.90;;;;;;5017281;28;20115;-65
2023/08/26 09:04:25;;;;;;;2.20;0.90;;;20.40;99.90;;;;;;5018388;28;20026;-65
2023/08/26 09:06:51;;;;;;;5.57;1.35;;;20.40;99.90;;;;;;5017233;28;20026;-65
2023/08/26 09:09:18;;;;;;;5.18;1.42;;;20.60;99.90;;;;;;5017423;28;20084;-65
2023/08/26 09:11:43;;;;;;;1.52;1.00;;;20.60;99.90;;;;;;5017918;28;20022;-65
2023/08/26 09:14:09;;;;;;;2.65;1.00;;;20.60;99.90;;;;;;5017199;28;20083;-65
2023/08/26 09:16:36;;;;;;;3.30;0.88;;;20.60;99.90;;;;;;5016952;28;20022;-65
2023/08/26 09:19:04;;;;;;;2.65;0.90;;;20.60;99.90;;;;;;5017924;28;20026;-66
2023/08/26 09:21:30;;;;;;;2.38;0.82;;;20.60;99.90;;;;;;5016985;28;20022;-67
2023/08/26 09:23:56;;;;;;;2.78;0.75;;;20.60;99.90;;;;;;5017875;28;20037;-67
2023/08/26 09:26:26;;;;;;;1.35;0.82;;;20.60;99.90;;;;;;5016928;28;20025;-66
2023/08/26 09:28:51;;;;;;;3.05;1.48;;;20.60;99.90;;;;;;5016754;28;20120;-66
2023/08/26 09:31:18;;;;;;;1.88;1.02;;;20.70;99.90;;;;;;5017109;28;20046;-66
2023/08/26 09:34:03;;;;;;;3.00;1.20;;;20.70;99.90;;;;;;5017174;28;20018;-66
2023/08/26 09:36:39;;;;;;;1.70;1.05;;;20.90;99.90;;;;;;5017821;28;20053;-66
2023/08/26 09:39:15;;;;;;;2.67;0.73;;;21.00;99.90;;;;;;5016660;28;20026;-66
2023/08/26 09:41:45;;;;;;;1.67;1.00;;;21.00;99.90;;;;;;5016656;28;20030;-66
2023/08/26 09:44:11;;;;;;;1.08;0.68;;;21.00;99.90;;;;;;5016632;28;20022;-66
2023/08/26 09:46:39;;;;;;;2.30;0.80;;;21.00;99.90;;;;;;5016488;28;20026;-66
2023/08/26 09:49:05;;;;;;;1.55;0.82;;;21.10;99.90;;;;;;5017524;28;20036;-66
2023/08/26 09:51:31;;;;;;;1.80;0.90;;;21.20;99.90;;;;;;5017101;28;20022;-66
2023/08/26 09:53:58;;;;;;;3.85;1.13;;;21.30;99.90;;;;;;5016532;28;20088;-66
2023/08/26 09:56:25;;;;;;;1.08;0.40;;;21.40;99.90;;;;;;5017342;28;20096;-66
2023/08/26 09:58:55;;;;;;;1.00;0.88;;;21.50;99.90;;;;;;5016783;28;20021;-66
2023/08/26 10:01:22;;;;;;;5.57;1.27;;;21.60;99.90;;;;;;5017513;28;20033;-66
2023/08/26 10:03:57;;;;;;;1.65;0.80;;;21.60;99.90;;;;;;5016877;28;20108;-66
2023/08/26 10:06:25;;;;;;;2.22;0.90;;;21.70;99.90;;;;;;5016394;28;20025;-66
2023/08/26 10:08:58;;;;;;;1.88;0.93;;;21.70;99.90;;;;;;5017105;28;20029;-66
2023/08/26 10:11:26;;;;;;;4.00;1.08;;;21.90;99.90;;;;;;5016825;28;20053;-66
2023/08/26 10:13:56;;;;;;;3.95;1.15;;;22.00;99.90;;;;;;5017061;28;20022;-66
2023/08/26 10:16:23;;;;;;;1.25;0.80;;;22.00;99.90;;;;;;5016570;28;20045;-66
2023/08/26 10:18:54;;;;;;;1.58;0.80;;;21.90;99.90;;;;;;5016974;28;20026;-67
2023/08/26 10:21:20;;;;;;;3.10;0.55;;;22.20;99.90;;;;;;5017367;28;20026;-66
2023/08/26 10:23:49;;;;;;;1.35;0.70;;;22.30;99.90;;;;;;5016659;28;20034;-66
2023/08/26 10:26:19;;;;;;;3.70;0.88;;;22.40;99.90;;;;;;5016475;28;20026;-66
2023/08/26 10:28:47;;;;;;;3.97;1.23;;;22.60;99.90;;;;;;5016992;28;20030;-66
2023/08/26 10:31:14;;;;;;;3.13;0.98;;;22.70;99.90;;;;;;5016282;28;20124;-66
2023/08/26 10:34:15;;;;;;;3.10;1.17;;;23.10;99.90;;;;;;5016971;28;20018;-66
2023/08/26 10:36:42;;;;;;;3.63;1.08;;;;;;;;;;4960504;28;20019;-66
2023/08/26 10:39:14;;;;;;;2.10;0.82;;;24.20;99.90;;;;;;4976639;28;20038;-66
2023/08/26 10:41:40;;;;;;;1.80;1.17;;;24.80;99.90;;;;;;4960270;28;20081;-66
2023/08/26 10:44:05;;;;;;;1.52;0.90;;;25.30;99.90;;;;;;4960248;28;20066;-66
2023/08/26 10:46:37;;;;;;;1.27;0.73;;;25.70;99.90;;;;;;4960254;28;20037;-66
2023/08/26 10:49:04;;;;;;;2.65;1.05;;;25.80;99.90;;;;;;4960187;28;20030;-66
2023/08/26 10:51:30;;;;;;;1.88;0.70;;;25.30;99.90;;;;;;4976317;28;20049;-66
2023/08/26 10:54:05;;;;;;;2.40;1.13;;;25.50;99.90;;;;;;4960313;28;20027;-66
2023/08/26 10:56:37;;;;;;;1.83;0.88;;;25.70;99.90;;;;;;4960067;28;20061;-66
2023/08/26 10:59:05;;;;;;;1.88;0.98;;;26.40;99.90;;;;;;4960163;28;20027;-66
2023/08/26 11:01:35;;;;;;;2.75;0.90;;;26.20;99.90;;;;;;4960445;28;20023;-66
2023/08/26 11:04:03;;;;;;;2.42;0.70;;;26.20;99.90;;;;;;4960192;28;20085;-66
2023/08/26 11:06:35;;;;;;;2.45;1.02;;;26.40;99.40;;;;;;4976350;28;20023;-66
2023/08/26 11:09:03;;;;;;;2.05;1.08;;;26.50;98.50;;;;;;4976122;28;20030;-66
2023/08/26 11:11:28;;;;;;;2.03;1.10;;;26.30;97.40;;;;;;5012970;28;20084;-66
2023/08/26 11:13:54;;;;;;;2.83;1.20;;;26.30;97.20;;;;;;5020196;28;20026;-66
2023/08/26 11:16:21;;;;;;;1.83;0.88;;;26.20;97.20;;;;;;5019374;28;20033;-66
2023/08/26 11:18:46;;;;;;;1.98;0.80;;;26.30;96.90;;;;;;5019339;28;20018;-66
2023/08/26 11:21:12;;;;;;;2.25;0.80;;;26.20;99.30;;;;;;5019508;28;20018;-66
2023/08/26 11:23:39;;;;;;;1.90;0.90;;;26.20;98.30;;;;;;5019211;28;20030;-66
2023/08/26 11:26:08;;;;;;;1.58;0.70;;;26.50;96.50;;;;;;5019092;28;20049;-66
2023/08/26 11:28:33;;;;;;;1.65;0.90;;;26.60;95.70;;;;;;5019809;28;20041;-66
2023/08/26 11:31:00;;;;;;;0.77;0.68;;;26.40;94.70;;;;;;5019754;28;20021;-66
2023/08/26 11:33:27;;;;;;;6.20;2.60;;;26.30;94.90;;;;;;5019319;28;20034;-66
2023/08/26 11:35:53;;;;;;;2.50;1.48;;;26.10;96.10;;;;;;5019239;28;20108;-65
2023/08/26 11:38:19;;;;;;;2.20;1.55;;;26.30;95.60;;;;;;5019286;28;20064;-65
2023/08/26 11:40:46;;;;;;;2.00;1.45;;;26.30;96.90;;;;;;5019102;28;20026;-65
2023/08/26 11:43:13;;;;;;;1.52;1.27;;;26.40;96.40;;;;;;5019326;28;20026;-65
2023/08/26 11:45:41;;;;;;;1.45;0.80;;;26.90;95.40;;;;;;5019109;28;20033;-65
2023/08/26 11:48:12;;;;;;;4.22;1.20;;;27.10;93.50;;;;;;5018842;28;20034;-65
2023/08/26 11:50:39;;;;;;;3.30;1.70;;;27.00;93.90;;;;;;5019330;28;20036;-65
2023/08/26 11:53:04;;;;;;;1.88;0.85;;;26.80;93.60;;;;;;5018819;28;20037;-64
2023/08/26 11:55:34;;;;;;;1.92;0.88;;;26.70;93.60;;;;;;5018900;28;20017;-64
2023/08/26 11:58:02;;;;;;;1.88;0.70;;;26.80;93.60;;;;;;5019396;28;20022;-65
2023/08/26 12:00:28;;;;;;;2.20;0.73;;;26.80;93.30;;;;;;5018428;28;20053;-65
2023/08/26 12:03:04;;;;;;;1.42;0.75;;;26.60;93.70;;;;;;5018809;28;20032;-65
2023/08/26 12:06:07;;;;;;;1.80;1.17;;;26.50;93.70;;;;;;5018622;28;20034;-65
2023/08/26 12:08:33;;;;;;;2.05;1.08;;;26.80;93.30;;;;;;4962361;28;20031;-65
2023/08/26 12:10:59;;;;;;;2.25;1.05;;;26.90;93.70;;;;;;4962622;28;20035;-64
2023/08/26 12:13:38;;;;;;;1.77;1.00;;;26.80;92.30;;;;;;4962391;28;20163;-64
2023/08/26 12:16:04;;;;;;;5.03;1.05;;;26.40;92.80;;;;;;4962740;28;20062;-65
2023/08/26 12:18:29;;;;;;;2.70;1.02;;;26.20;94.00;;;;;;4962022;28;20030;-65
2023/08/26 12:20:55;;;;;;;1.75;0.68;;;26.40;93.70;;;;;;4962403;28;20023;-65
2023/08/26 12:23:21;;;;;;;1.35;0.90;;;26.90;92.70;;;;;;4961967;28;20065;-65
2023/08/26 12:25:47;;;;;;;5.70;1.25;;;27.20;92.00;;;;;;4962264;28;20109;-65
2023/08/26 12:28:22;;;;;;;1.95;0.85;;;27.30;91.50;;;;;;4962138;28;20057;-65
2023/08/26 12:30:48;;;;;;;1.90;1.17;;;27.20;91.70;;;;;;4962009;28;20029;-65
2023/08/26 12:33:14;;;;;;;1.90;1.55;;;27.10;91.20;;;;;;4962079;28;20023;-65
2023/08/26 12:35:40;;;;;;;2.13;1.52;;;27.00;91.50;;;;;;4962532;28;20034;-65
2023/08/26 12:38:06;;;;;;;1.55;0.80;;;27.20;91.70;;;;;;4961976;28;20019;-65